Terminal Aerodrome Forecast
Issued by NWS

Home | Current Version | Previous Version | Graphics & Text | Print | Product List | Glossary On
Versions: 1 2 3 4 5 6 7 8 9 10 11 12 13 14 15 16 17 18 19 20 21 22 23 24 25 26 27 28 29 30 31 32 33 34 35
000
FTUS43 KLOT 150827 AAC
TAFMDW
TAF AMD
KMDW 150827Z 1508/1606 23013G20KT 6SM -SHRA BR BKN008 OVC015
     FM151000 25015G24KT P6SM SCT009 OVC018
     FM151130 28020G30KT P6SM OVC015
     FM151700 31019G27KT P6SM BKN030
     FM152100 32014G22KT P6SM BKN040
     FM152300 32010KT P6SM BKN050
     FM160300 29005KT P6SM SCT250=

USA.gov is the U.S. government's official web portal to all federal, state and local government web resources and services.